sensor_id;sensor_type;location;lat;lon;timestamp;temperature;humidity
29007;DHT22;16104;48.642;9.008;2023-02-26T00:02:41;3.50;57.90
29007;DHT22;16104;48.642;9.008;2023-02-26T00:07:40;3.50;57.90
29007;DHT22;16104;48.642;9.008;2023-02-26T00:12:36;3.50;57.70
29007;DHT22;16104;48.642;9.008;2023-02-26T00:18:01;3.40;57.90
29007;DHT22;16104;48.642;9.008;2023-02-26T00:22:58;3.40;58.00
29007;DHT22;16104;48.642;9.008;2023-02-26T00:27:54;3.30;57.90
29007;DHT22;16104;48.642;9.008;2023-02-26T00:32:50;3.30;57.80
29007;DHT22;16104;48.642;9.008;2023-02-26T00:38:03;3.30;57.80
29007;DHT22;16104;48.642;9.008;2023-02-26T00:43:00;3.20;57.60
29007;DHT22;16104;48.642;9.008;2023-02-26T00:48:51;3.20;57.70
29007;DHT22;16104;48.642;9.008;2023-02-26T00:58:52;3.10;57.90
29007;DHT22;16104;48.642;9.008;2023-02-26T02:05:04;2.60;57.90
29007;DHT22;16104;48.642;9.008;2023-02-26T02:10:01;2.50;57.90
29007;DHT22;16104;48.642;9.008;2023-02-26T03:00:55;2.20;58.00
29007;DHT22;16104;48.642;9.008;2023-02-26T03:05:52;2.10;57.90
29007;DHT22;16104;48.642;9.008;2023-02-26T03:10:47;2.10;57.80
29007;DHT22;16104;48.642;9.008;2023-02-26T04:01:53;1.60;58.30
29007;DHT22;16104;48.642;9.008;2023-02-26T04:06:50;1.50;58.40
29007;DHT22;16104;48.642;9.008;2023-02-26T04:11:50;1.50;58.50
29007;DHT22;16104;48.642;9.008;2023-02-26T04:16:47;1.50;58.60
29007;DHT22;16104;48.642;9.008;2023-02-26T04:21:42;1.40;58.60
29007;DHT22;16104;48.642;9.008;2023-02-26T04:26:38;1.50;58.80
29007;DHT22;16104;48.642;9.008;2023-02-26T04:31:34;1.40;58.90
29007;DHT22;16104;48.642;9.008;2023-02-26T04:36:29;1.40;58.90
29007;DHT22;16104;48.642;9.008;2023-02-26T04:41:25;1.30;59.00
29007;DHT22;16104;48.642;9.008;2023-02-26T04:46:20;1.30;59.10
29007;DHT22;16104;48.642;9.008;2023-02-26T04:51:16;1.30;59.10
29007;DHT22;16104;48.642;9.008;2023-02-26T04:56:12;1.20;59.10
29007;DHT22;16104;48.642;9.008;2023-02-26T05:01:08;1.20;59.20
29007;DHT22;16104;48.642;9.008;2023-02-26T05:06:03;1.20;59.30
29007;DHT22;16104;48.642;9.008;2023-02-26T05:10:59;1.10;59.40
29007;DHT22;16104;48.642;9.008;2023-02-26T05:15:55;1.10;59.50
29007;DHT22;16104;48.642;9.008;2023-02-26T05:20:54;1.10;59.50
29007;DHT22;16104;48.642;9.008;2023-02-26T05:25:49;1.00;59.70
29007;DHT22;16104;48.642;9.008;2023-02-26T05:30:45;1.00;59.80
29007;DHT22;16104;48.642;9.008;2023-02-26T05:35:40;1.00;59.80
29007;DHT22;16104;48.642;9.008;2023-02-26T05:40:36;1.00;59.90
29007;DHT22;16104;48.642;9.008;2023-02-26T05:45:31;0.90;59.90
29007;DHT22;16104;48.642;9.008;2023-02-26T05:50:27;0.90;60.00
29007;DHT22;16104;48.642;9.008;2023-02-26T05:55:24;0.90;60.00
29007;DHT22;16104;48.642;9.008;2023-02-26T06:00:20;0.90;60.00
29007;DHT22;16104;48.642;9.008;2023-02-26T06:05:16;0.90;60.10
29007;DHT22;16104;48.642;9.008;2023-02-26T06:10:11;0.90;60.00
29007;DHT22;16104;48.642;9.008;2023-02-26T06:15:08;0.80;60.00
29007;DHT22;16104;48.642;9.008;2023-02-26T06:20:04;0.80;60.20
29007;DHT22;16104;48.642;9.008;2023-02-26T06:25:00;0.80;60.20
29007;DHT22;16104;48.642;9.008;2023-02-26T06:29:56;0.80;60.30
29007;DHT22;16104;48.642;9.008;2023-02-26T06:34:51;0.70;60.30
29007;DHT22;16104;48.642;9.008;2023-02-26T06:39:47;0.70;60.40
29007;DHT22;16104;48.642;9.008;2023-02-26T06:44:42;0.70;60.40
29007;DHT22;16104;48.642;9.008;2023-02-26T06:49:38;0.70;60.50
29007;DHT22;16104;48.642;9.008;2023-02-26T06:54:33;0.70;60.70
29007;DHT22;16104;48.642;9.008;2023-02-26T06:59:29;0.60;60.70
29007;DHT22;16104;48.642;9.008;2023-02-26T07:04:25;0.60;60.90
29007;DHT22;16104;48.642;9.008;2023-02-26T07:09:20;0.60;61.00
29007;DHT22;16104;48.642;9.008;2023-02-26T07:14:16;0.60;61.20
29007;DHT22;16104;48.642;9.008;2023-02-26T07:19:11;0.60;61.40
29007;DHT22;16104;48.642;9.008;2023-02-26T07:24:07;0.60;61.40
29007;DHT22;16104;48.642;9.008;2023-02-26T07:29:03;0.60;61.40
29007;DHT22;16104;48.642;9.008;2023-02-26T07:33:58;0.60;61.60
29007;DHT22;16104;48.642;9.008;2023-02-26T07:38:54;0.60;61.70
29007;DHT22;16104;48.642;9.008;2023-02-26T07:43:49;0.70;61.90
29007;DHT22;16104;48.642;9.008;2023-02-26T07:48:45;0.70;61.90
29007;DHT22;16104;48.642;9.008;2023-02-26T07:53:40;0.80;62.10
29007;DHT22;16104;48.642;9.008;2023-02-26T07:58:36;0.90;62.30
29007;DHT22;16104;48.642;9.008;2023-02-26T08:03:31;1.00;62.10
29007;DHT22;16104;48.642;9.008;2023-02-26T08:08:27;1.10;61.90
29007;DHT22;16104;48.642;9.008;2023-02-26T08:13:23;1.20;61.80
29007;DHT22;16104;48.642;9.008;2023-02-26T08:18:18;1.30;61.50
29007;DHT22;16104;48.642;9.008;2023-02-26T08:23:14;1.30;61.50
29007;DHT22;16104;48.642;9.008;2023-02-26T08:28:10;1.40;61.30
29007;DHT22;16104;48.642;9.008;2023-02-26T08:33:06;1.40;61.20
29007;DHT22;16104;48.642;9.008;2023-02-26T08:38:01;1.50;61.60
29007;DHT22;16104;48.642;9.008;2023-02-26T08:42:57;1.60;62.10
29007;DHT22;16104;48.642;9.008;2023-02-26T08:47:52;1.70;62.30
29007;DHT22;16104;48.642;9.008;2023-02-26T08:52:51;1.80;61.90
29007;DHT22;16104;48.642;9.008;2023-02-26T08:57:47;1.80;61.80
29007;DHT22;16104;48.642;9.008;2023-02-26T09:02:42;1.90;61.50
29007;DHT22;16104;48.642;9.008;2023-02-26T09:07:38;2.10;61.30
29007;DHT22;16104;48.642;9.008;2023-02-26T09:12:33;2.20;61.10
29007;DHT22;16104;48.642;9.008;2023-02-26T09:17:32;2.20;60.30
29007;DHT22;16104;48.642;9.008;2023-02-26T09:22:28;2.20;60.00
29007;DHT22;16104;48.642;9.008;2023-02-26T09:27:23;2.10;60.00
29007;DHT22;16104;48.642;9.008;2023-02-26T09:32:19;2.10;60.20
29007;DHT22;16104;48.642;9.008;2023-02-26T09:37:15;2.10;60.30
29007;DHT22;16104;48.642;9.008;2023-02-26T09:47:37;2.20;60.30
29007;DHT22;16104;48.642;9.008;2023-02-26T09:53:00;2.20;60.20
29007;DHT22;16104;48.642;9.008;2023-02-26T09:58:02;2.20;60.40
29007;DHT22;16104;48.642;9.008;2023-02-26T10:08:03;2.30;60.50
29007;DHT22;16104;48.642;9.008;2023-02-26T10:13:00;2.30;60.40
29007;DHT22;16104;48.642;9.008;2023-02-26T10:18:15;2.30;60.30
29007;DHT22;16104;48.642;9.008;2023-02-26T10:23:22;2.30;60.20
29007;DHT22;16104;48.642;9.008;2023-02-26T10:33:54;2.40;60.20
29007;DHT22;16104;48.642;9.008;2023-02-26T10:38:59;2.30;60.00
29007;DHT22;16104;48.642;9.008;2023-02-26T10:49:58;2.40;60.40
29007;DHT22;16104;48.642;9.008;2023-02-26T10:55:36;2.50;60.40
29007;DHT22;16104;48.642;9.008;2023-02-26T11:00:33;2.50;60.60
29007;DHT22;16104;48.642;9.008;2023-02-26T11:05:33;2.50;60.50
29007;DHT22;16104;48.642;9.008;2023-02-26T11:10:50;2.60;60.30
29007;DHT22;16104;48.642;9.008;2023-02-26T11:15:48;2.60;60.30
29007;DHT22;16104;48.642;9.008;2023-02-26T11:20:46;2.60;61.20
29007;DHT22;16104;48.642;9.008;2023-02-26T11:25:41;2.70;60.40
29007;DHT22;16104;48.642;9.008;2023-02-26T11:30:41;2.70;60.50
29007;DHT22;16104;48.642;9.008;2023-02-26T11:35:38;2.90;60.40
29007;DHT22;16104;48.642;9.008;2023-02-26T11:40:37;3.00;60.20
29007;DHT22;16104;48.642;9.008;2023-02-26T11:45:36;3.00;60.00
29007;DHT22;16104;48.642;9.008;2023-02-26T11:50:41;3.10;60.00
29007;DHT22;16104;48.642;9.008;2023-02-26T11:55:42;3.20;59.80
29007;DHT22;16104;48.642;9.008;2023-02-26T12:00:42;3.30;59.60
29007;DHT22;16104;48.642;9.008;2023-02-26T12:05:39;3.20;59.60
29007;DHT22;16104;48.642;9.008;2023-02-26T12:10:43;3.30;59.60
29007;DHT22;16104;48.642;9.008;2023-02-26T12:15:58;3.30;59.40
29007;DHT22;16104;48.642;9.008;2023-02-26T12:26:33;3.40;59.10
29007;DHT22;16104;48.642;9.008;2023-02-26T12:42:08;3.40;59.20
29007;DHT22;16104;48.642;9.008;2023-02-26T12:47:12;3.40;59.00
29007;DHT22;16104;48.642;9.008;2023-02-26T12:52:32;3.40;59.10
29007;DHT22;16104;48.642;9.008;2023-02-26T12:57:53;3.30;59.10
29007;DHT22;16104;48.642;9.008;2023-02-26T13:19:12;3.30;59.10
29007;DHT22;16104;48.642;9.008;2023-02-26T13:24:21;3.30;59.10
29007;DHT22;16104;48.642;9.008;2023-02-26T13:29:31;3.30;59.00
29007;DHT22;16104;48.642;9.008;2023-02-26T13:34:47;3.40;59.10
29007;DHT22;16104;48.642;9.008;2023-02-26T13:50:49;3.50;58.80
29007;DHT22;16104;48.642;9.008;2023-02-26T13:55:50;3.60;58.70
29007;DHT22;16104;48.642;9.008;2023-02-26T14:00:55;3.60;58.60
29007;DHT22;16104;48.642;9.008;2023-02-26T14:37:12;3.90;57.70
29007;DHT22;16104;48.642;9.008;2023-02-26T14:42:13;4.20;57.30
29007;DHT22;16104;48.642;9.008;2023-02-26T14:47:11;4.30;56.70
29007;DHT22;16104;48.642;9.008;2023-02-26T14:58:02;4.60;56.30
29007;DHT22;16104;48.642;9.008;2023-02-26T15:03:14;4.90;56.20
29007;DHT22;16104;48.642;9.008;2023-02-26T15:14:08;5.40;55.60
29007;DHT22;16104;48.642;9.008;2023-02-26T15:24:35;5.80;54.10
29007;DHT22;16104;48.642;9.008;2023-02-26T15:29:34;5.80;53.80
29007;DHT22;16104;48.642;9.008;2023-02-26T15:34:30;5.70;53.20
29007;DHT22;16104;48.642;9.008;2023-02-26T15:39:27;5.50;53.40
29007;DHT22;16104;48.642;9.008;2023-02-26T15:44:30;5.40;53.50
29007;DHT22;16104;48.642;9.008;2023-02-26T15:49:35;5.30;52.90
29007;DHT22;16104;48.642;9.008;2023-02-26T15:54:40;5.20;52.70
29007;DHT22;16104;48.642;9.008;2023-02-26T15:59:43;5.00;52.30
29007;DHT22;16104;48.642;9.008;2023-02-26T16:04:41;4.80;52.60
29007;DHT22;16104;48.642;9.008;2023-02-26T16:09:55;4.70;53.20
29007;DHT22;16104;48.642;9.008;2023-02-26T16:15:00;4.60;53.00
29007;DHT22;16104;48.642;9.008;2023-02-26T16:19:58;4.50;53.20
29007;DHT22;16104;48.642;9.008;2023-02-26T16:25:03;4.40;53.50
29007;DHT22;16104;48.642;9.008;2023-02-26T16:30:01;4.30;53.40
29007;DHT22;16104;48.642;9.008;2023-02-26T16:35:10;4.30;53.70
29007;DHT22;16104;48.642;9.008;2023-02-26T16:40:55;4.30;53.40
29007;DHT22;16104;48.642;9.008;2023-02-26T16:50:33;4.10;52.70
29007;DHT22;16104;48.642;9.008;2023-02-26T16:55:31;4.00;52.50
29007;DHT22;16104;48.642;9.008;2023-02-26T17:00:29;4.00;52.70
29007;DHT22;16104;48.642;9.008;2023-02-26T17:05:29;3.90;52.70
29007;DHT22;16104;48.642;9.008;2023-02-26T17:10:32;3.80;52.70
29007;DHT22;16104;48.642;9.008;2023-02-26T17:15:38;3.80;52.50
29007;DHT22;16104;48.642;9.008;2023-02-26T17:20:35;3.70;52.50
29007;DHT22;16104;48.642;9.008;2023-02-26T17:25:37;3.70;52.80
29007;DHT22;16104;48.642;9.008;2023-02-26T17:30:33;3.70;52.60
29007;DHT22;16104;48.642;9.008;2023-02-26T17:35:29;3.70;52.70
29007;DHT22;16104;48.642;9.008;2023-02-26T17:40:28;3.60;52.60
29007;DHT22;16104;48.642;9.008;2023-02-26T17:45:25;3.50;52.60
29007;DHT22;16104;48.642;9.008;2023-02-26T17:50:26;3.50;52.60
29007;DHT22;16104;48.642;9.008;2023-02-26T17:55:24;3.40;52.50
29007;DHT22;16104;48.642;9.008;2023-02-26T18:00:19;3.40;52.40
29007;DHT22;16104;48.642;9.008;2023-02-26T18:05:15;3.40;52.50
29007;DHT22;16104;48.642;9.008;2023-02-26T18:10:21;3.30;52.60
29007;DHT22;16104;48.642;9.008;2023-02-26T18:15:16;3.30;52.50
29007;DHT22;16104;48.642;9.008;2023-02-26T18:20:17;3.20;52.70
29007;DHT22;16104;48.642;9.008;2023-02-26T18:25:13;3.20;52.90
29007;DHT22;16104;48.642;9.008;2023-02-26T18:30:31;3.20;52.80
29007;DHT22;16104;48.642;9.008;2023-02-26T18:35:28;3.10;52.60
29007;DHT22;16104;48.642;9.008;2023-02-26T18:40:26;3.10;53.10
29007;DHT22;16104;48.642;9.008;2023-02-26T18:45:22;3.00;52.80
29007;DHT22;16104;48.642;9.008;2023-02-26T18:50:17;3.00;52.90
29007;DHT22;16104;48.642;9.008;2023-02-26T18:55:13;2.90;53.00
29007;DHT22;16104;48.642;9.008;2023-02-26T19:00:11;2.90;53.00
29007;DHT22;16104;48.642;9.008;2023-02-26T19:05:11;2.80;53.10
29007;DHT22;16104;48.642;9.008;2023-02-26T19:10:10;2.80;53.10
29007;DHT22;16104;48.642;9.008;2023-02-26T19:15:08;2.70;53.00
29007;DHT22;16104;48.642;9.008;2023-02-26T19:20:05;2.70;53.20
29007;DHT22;16104;48.642;9.008;2023-02-26T19:25:00;2.70;53.20
29007;DHT22;16104;48.642;9.008;2023-02-26T19:29:56;2.70;53.30
29007;DHT22;16104;48.642;9.008;2023-02-26T19:34:51;2.60;53.20
29007;DHT22;16104;48.642;9.008;2023-02-26T19:39:47;2.60;53.30
29007;DHT22;16104;48.642;9.008;2023-02-26T19:44:42;2.60;53.50
29007;DHT22;16104;48.642;9.008;2023-02-26T19:49:38;2.60;53.40
29007;DHT22;16104;48.642;9.008;2023-02-26T19:54:33;2.50;53.40
29007;DHT22;16104;48.642;9.008;2023-02-26T19:59:29;2.50;53.60
29007;DHT22;16104;48.642;9.008;2023-02-26T20:04:25;2.50;53.70
29007;DHT22;16104;48.642;9.008;2023-02-26T20:09:20;2.40;53.60
29007;DHT22;16104;48.642;9.008;2023-02-26T20:14:17;2.40;53.70
29007;DHT22;16104;48.642;9.008;2023-02-26T20:19:12;2.40;53.70
29007;DHT22;16104;48.642;9.008;2023-02-26T20:24:09;2.40;53.70
29007;DHT22;16104;48.642;9.008;2023-02-26T20:29:04;2.30;53.70
29007;DHT22;16104;48.642;9.008;2023-02-26T20:34:00;2.30;53.80
29007;DHT22;16104;48.642;9.008;2023-02-26T20:38:55;2.30;53.90
29007;DHT22;16104;48.642;9.008;2023-02-26T20:43:51;2.30;54.00
29007;DHT22;16104;48.642;9.008;2023-02-26T20:48:46;2.30;54.10
29007;DHT22;16104;48.642;9.008;2023-02-26T20:53:42;2.20;54.00
29007;DHT22;16104;48.642;9.008;2023-02-26T20:58:38;2.20;54.10
29007;DHT22;16104;48.642;9.008;2023-02-26T21:03:35;2.20;54.10
29007;DHT22;16104;48.642;9.008;2023-02-26T21:08:31;2.20;54.30
29007;DHT22;16104;48.642;9.008;2023-02-26T21:13:27;2.10;54.10
29007;DHT22;16104;48.642;9.008;2023-02-26T21:18:23;2.10;54.30
29007;DHT22;16104;48.642;9.008;2023-02-26T21:23:26;2.00;54.30
29007;DHT22;16104;48.642;9.008;2023-02-26T21:28:21;2.00;54.40
29007;DHT22;16104;48.642;9.008;2023-02-26T21:33:17;1.90;54.40
29007;DHT22;16104;48.642;9.008;2023-02-26T21:38:13;1.90;54.60
29007;DHT22;16104;48.642;9.008;2023-02-26T21:43:09;1.90;54.70
29007;DHT22;16104;48.642;9.008;2023-02-26T21:48:05;1.90;54.80
29007;DHT22;16104;48.642;9.008;2023-02-26T21:53:00;1.80;54.90
29007;DHT22;16104;48.642;9.008;2023-02-26T21:57:55;1.80;54.90
29007;DHT22;16104;48.642;9.008;2023-02-26T22:02:51;1.80;55.00
29007;DHT22;16104;48.642;9.008;2023-02-26T22:07:46;1.80;55.10
29007;DHT22;16104;48.642;9.008;2023-02-26T22:12:42;1.70;55.10
29007;DHT22;16104;48.642;9.008;2023-02-26T22:17:38;1.70;55.10
29007;DHT22;16104;48.642;9.008;2023-02-26T22:22:33;1.70;55.10
29007;DHT22;16104;48.642;9.008;2023-02-26T22:27:29;1.60;55.10
29007;DHT22;16104;48.642;9.008;2023-02-26T22:32:24;1.60;55.30
29007;DHT22;16104;48.642;9.008;2023-02-26T22:37:20;1.60;55.30
29007;DHT22;16104;48.642;9.008;2023-02-26T22:42:15;1.60;55.30
29007;DHT22;16104;48.642;9.008;2023-02-26T22:47:11;1.50;55.40
29007;DHT22;16104;48.642;9.008;2023-02-26T22:52:07;1.50;55.50
29007;DHT22;16104;48.642;9.008;2023-02-26T22:57:05;1.40;55.50
29007;DHT22;16104;48.642;9.008;2023-02-26T23:02:01;1.40;55.50
29007;DHT22;16104;48.642;9.008;2023-02-26T23:06:57;1.40;55.60
29007;DHT22;16104;48.642;9.008;2023-02-26T23:11:52;1.40;55.60
29007;DHT22;16104;48.642;9.008;2023-02-26T23:16:48;1.30;55.60
29007;DHT22;16104;48.642;9.008;2023-02-26T23:21:43;1.30;55.80
29007;DHT22;16104;48.642;9.008;2023-02-26T23:26:39;1.30;55.80
29007;DHT22;16104;48.642;9.008;2023-02-26T23:31:34;1.20;55.90
29007;DHT22;16104;48.642;9.008;2023-02-26T23:36:30;1.20;56.00
29007;DHT22;16104;48.642;9.008;2023-02-26T23:41:25;1.20;56.00
29007;DHT22;16104;48.642;9.008;2023-02-26T23:46:21;1.10;56.10
29007;DHT22;16104;48.642;9.008;2023-02-26T23:51:17;1.10;56.70
29007;DHT22;16104;48.642;9.008;2023-02-26T23:56:13;1.10;56.20
